Time;durP1;ratioP1;P1;durP2;ratioP2;P2;SDS_P1;SDS_P2;PMS_P1;PMS_P2;Temp;Humidity;BMP_temperature;BMP_pressure;BME280_temperature;BME280_humidity;BME280_pressure;Samples;Min_cycle;Max_cycle;Signal;HPM_P1;HPM_P2
2021/09/19 00:00:15;;;;;;;17.08;14.25;;;15.10;99.90;;;;;;4998259;28;20045;-55
2021/09/19 00:02:40;;;;;;;17.05;14.80;;;15.10;99.90;;;;;;4998703;28;20062;-52
2021/09/19 00:05:10;;;;;;;21.52;14.82;;;15.20;99.90;;;;;;5010244;28;20449;-56
2021/09/19 00:07:36;;;;;;;18.15;14.55;;;15.20;99.90;;;;;;5013002;28;20731;-54
2021/09/19 00:10:03;;;;;;;16.48;13.65;;;15.20;99.90;;;;;;5004325;28;20092;-56
2021/09/19 00:12:29;;;;;;;16.38;13.80;;;15.20;99.90;;;;;;5003415;28;20109;-53
2021/09/19 00:14:55;;;;;;;15.02;13.10;;;15.20;99.90;;;;;;5003700;28;20176;-54
2021/09/19 00:17:21;;;;;;;17.95;13.07;;;15.30;99.90;;;;;;4966676;28;20046;-55
2021/09/19 00:19:47;;;;;;;15.05;12.82;;;15.30;99.90;;;;;;4991909;28;20046;-52
2021/09/19 00:22:12;;;;;;;14.77;12.95;;;15.30;99.90;;;;;;5007683;28;20120;-53
2021/09/19 00:24:38;;;;;;;15.68;12.68;;;15.30;99.90;;;;;;4995826;28;20046;-53
2021/09/19 00:27:04;;;;;;;14.40;12.00;;;15.30;99.90;;;;;;4999991;28;20475;-53
2021/09/19 00:29:30;;;;;;;14.65;12.70;;;15.30;99.90;;;;;;4995385;28;20069;-54
2021/09/19 00:31:56;;;;;;;14.40;11.10;;;15.30;99.90;;;;;;4972849;28;20038;-54
2021/09/19 00:34:21;;;;;;;13.13;10.65;;;15.40;99.90;;;;;;5002050;28;20487;-54
2021/09/19 00:36:47;;;;;;;13.60;10.48;;;15.40;99.90;;;;;;4996673;28;20043;-51
2021/09/19 00:39:13;;;;;;;12.05;9.82;;;15.50;99.80;;;;;;5011151;28;20030;-51
2021/09/19 00:41:39;;;;;;;11.02;8.98;;;15.40;99.80;;;;;;5006073;28;20030;-54
2021/09/19 00:44:07;;;;;;;11.55;9.43;;;15.50;99.80;;;;;;5012801;28;20042;-51
2021/09/19 00:46:33;;;;;;;11.65;8.63;;;15.50;99.70;;;;;;4996812;28;20037;-53
2021/09/19 00:48:59;;;;;;;10.82;9.35;;;15.50;99.50;;;;;;5010337;28;20066;-54
2021/09/19 00:51:24;;;;;;;10.90;9.25;;;15.50;99.80;;;;;;4984988;28;20457;-50
2021/09/19 00:53:51;;;;;;;10.65;8.82;;;15.50;99.70;;;;;;4996987;28;20049;-54
2021/09/19 00:56:27;;;;;;;11.88;8.18;;;15.50;99.80;;;;;;5013369;28;20034;-56
2021/09/19 00:58:56;;;;;;;11.73;8.73;;;15.40;99.90;;;;;;4981053;28;20143;-52
2021/09/19 01:01:23;;;;;;;8.75;7.53;;;15.40;99.70;;;;;;5000591;28;20076;-55
2021/09/19 01:03:50;;;;;;;10.20;7.90;;;15.50;99.80;;;;;;5012167;28;20303;-56
2021/09/19 01:06:16;;;;;;;11.63;7.40;;;15.40;99.70;;;;;;4995208;28;20044;-56
2021/09/19 01:08:45;;;;;;;10.57;7.25;;;15.50;99.70;;;;;;4965388;28;20042;-56
2021/09/19 01:11:13;;;;;;;8.60;6.45;;;15.50;99.30;;;;;;4987584;28;20053;-56
2021/09/19 01:13:44;;;;;;;8.32;6.03;;;15.50;99.10;;;;;;5007191;28;20050;-56
2021/09/19 01:16:14;;;;;;;7.70;5.90;;;15.50;99.40;;;;;;4999390;28;20080;-55
2021/09/19 01:18:41;;;;;;;7.10;6.10;;;15.50;99.00;;;;;;4965982;28;20096;-56
2021/09/19 01:21:08;;;;;;;7.57;5.90;;;15.40;99.20;;;;;;4995058;28;20057;-56
2021/09/19 01:23:37;;;;;;;7.72;6.05;;;15.50;99.40;;;;;;5002399;28;20050;-56
2021/09/19 01:26:04;;;;;;;7.43;5.75;;;15.50;99.20;;;;;;5011087;28;20038;-54
2021/09/19 01:28:31;;;;;;;7.38;5.38;;;15.50;99.10;;;;;;5012301;28;20037;-56
2021/09/19 01:30:56;;;;;;;9.23;5.40;;;15.40;99.20;;;;;;4994382;28;20050;-56
2021/09/19 01:33:22;;;;;;;7.70;5.45;;;15.40;99.40;;;;;;4991766;28;20087;-55
2021/09/19 01:35:48;;;;;;;7.75;5.18;;;15.40;99.50;;;;;;5012534;28;20034;-53
2021/09/19 01:38:14;;;;;;;7.57;5.50;;;15.40;99.40;;;;;;4956640;28;20550;-56
2021/09/19 01:40:40;;;;;;;6.40;5.10;;;15.40;99.50;;;;;;4984395;28;20128;-56
2021/09/19 01:43:05;;;;;;;5.80;4.95;;;15.30;99.50;;;;;;5013128;28;20029;-56
2021/09/19 01:45:31;;;;;;;5.50;4.35;;;15.30;99.40;;;;;;5002927;28;20045;-56
2021/09/19 01:47:57;;;;;;;7.75;4.65;;;15.40;99.60;;;;;;4988976;28;20053;-56
2021/09/19 01:50:25;;;;;;;6.18;4.88;;;15.40;99.20;;;;;;5005738;28;20042;-55
2021/09/19 01:52:51;;;;;;;5.72;4.28;;;15.30;99.30;;;;;;5003099;28;20042;-56
2021/09/19 01:55:17;;;;;;;6.93;4.40;;;15.30;99.40;;;;;;4993366;28;20030;-57
2021/09/19 01:57:44;;;;;;;4.90;3.97;;;15.40;99.20;;;;;;5007964;28;20046;-56
2021/09/19 02:00:10;;;;;;;5.75;4.28;;;15.30;99.10;;;;;;5003263;28;20116;-56
2021/09/19 02:02:37;;;;;;;4.70;3.83;;;15.30;99.10;;;;;;4997737;28;20069;-56
2021/09/19 02:05:04;;;;;;;6.22;3.90;;;15.30;99.20;;;;;;5002672;28;20058;-55
2021/09/19 02:07:30;;;;;;;5.20;3.63;;;15.30;99.10;;;;;;4989537;28;20038;-56
2021/09/19 02:09:56;;;;;;;5.07;3.75;;;15.30;99.20;;;;;;5004504;28;20060;-56
2021/09/19 02:12:23;;;;;;;4.65;3.60;;;15.20;99.10;;;;;;4968550;28;20104;-55
2021/09/19 02:14:48;;;;;;;7.43;4.05;;;15.20;99.20;;;;;;5006200;28;20035;-56
2021/09/19 02:17:14;;;;;;;8.15;4.00;;;15.20;99.30;;;;;;4992429;28;20376;-56
2021/09/19 02:19:41;;;;;;;5.65;4.18;;;15.20;99.40;;;;;;5011705;28;20558;-56
2021/09/19 02:22:08;;;;;;;5.25;4.00;;;15.20;99.10;;;;;;4999204;28;20042;-56
2021/09/19 02:24:34;;;;;;;5.28;3.80;;;15.30;99.00;;;;;;4982985;28;20610;-56
2021/09/19 02:26:59;;;;;;;5.70;4.35;;;15.20;99.10;;;;;;4975509;28;20110;-55
2021/09/19 02:29:25;;;;;;;7.85;4.22;;;15.20;98.80;;;;;;4992608;28;20030;-55
2021/09/19 02:31:51;;;;;;;6.80;4.20;;;15.20;99.00;;;;;;4993805;28;20034;-55
2021/09/19 02:34:17;;;;;;;6.60;4.57;;;15.20;99.20;;;;;;4994441;28;20388;-56
2021/09/19 02:36:43;;;;;;;7.50;4.43;;;15.20;99.20;;;;;;4967293;28;20097;-56
2021/09/19 02:39:09;;;;;;;5.28;4.60;;;15.20;99.30;;;;;;5003010;28;20057;-56
2021/09/19 02:41:36;;;;;;;6.65;5.00;;;15.20;99.00;;;;;;5006398;28;20096;-55
2021/09/19 02:44:02;;;;;;;7.32;5.05;;;15.20;99.20;;;;;;4992047;28;20049;-56
2021/09/19 02:46:28;;;;;;;7.22;5.03;;;15.10;99.20;;;;;;4991675;28;20034;-56
2021/09/19 02:48:53;;;;;;;4.95;4.43;;;15.20;99.20;;;;;;4994743;28;20057;-56
2021/09/19 02:51:19;;;;;;;8.27;5.05;;;15.20;99.20;;;;;;4980988;28;20470;-55
2021/09/19 02:53:45;;;;;;;9.88;4.90;;;15.10;99.20;;;;;;4993771;28;20050;-56
2021/09/19 02:56:11;;;;;;;6.47;4.47;;;15.10;99.30;;;;;;4974721;28;20049;-55
2021/09/19 02:58:37;;;;;;;8.38;5.45;;;15.20;99.20;;;;;;4978574;28;20030;-57
2021/09/19 03:01:03;;;;;;;6.80;4.85;;;15.10;99.00;;;;;;4976891;28;20046;-55
2021/09/19 03:03:29;;;;;;;8.48;5.43;;;15.20;99.20;;;;;;4995154;28;20056;-57
2021/09/19 03:05:55;;;;;;;6.97;5.00;;;15.20;99.20;;;;;;4975442;28;20050;-55
2021/09/19 03:08:20;;;;;;;7.53;5.20;;;15.20;99.20;;;;;;5006194;28;20103;-56
2021/09/19 03:10:46;;;;;;;7.45;5.20;;;15.10;99.20;;;;;;4998189;28;20080;-54
2021/09/19 03:13:12;;;;;;;7.55;5.53;;;15.20;99.20;;;;;;4967693;28;20061;-55
2021/09/19 03:15:38;;;;;;;9.25;5.80;;;15.20;99.10;;;;;;4963891;28;20486;-55
2021/09/19 03:18:06;;;;;;;9.38;5.57;;;15.20;98.90;;;;;;4976156;28;20069;-55
2021/09/19 03:20:32;;;;;;;9.27;6.28;;;15.20;99.00;;;;;;4983927;28;20047;-56
2021/09/19 03:22:58;;;;;;;9.50;6.43;;;15.10;99.00;;;;;;4999343;28;20034;-52
2021/09/19 03:25:23;;;;;;;8.57;6.38;;;15.10;99.30;;;;;;4978389;28;20438;-53
2021/09/19 03:27:49;;;;;;;8.45;6.00;;;15.10;99.30;;;;;;5008615;28;20470;-53
2021/09/19 03:30:15;;;;;;;8.85;6.32;;;15.10;99.30;;;;;;5005453;28;20538;-51
2021/09/19 03:32:42;;;;;;;8.80;6.10;;;15.20;99.10;;;;;;4997961;28;20065;-52
2021/09/19 03:35:10;;;;;;;8.80;6.25;;;15.10;99.00;;;;;;5010212;28;20080;-50
2021/09/19 03:37:36;;;;;;;11.25;6.43;;;15.20;98.90;;;;;;4979763;28;20094;-50
2021/09/19 03:40:04;;;;;;;8.57;6.45;;;15.10;99.00;;;;;;4976181;28;20046;-52
2021/09/19 03:42:30;;;;;;;7.68;6.10;;;15.10;99.00;;;;;;4969150;28;20050;-52
2021/09/19 03:44:56;;;;;;;7.57;5.72;;;15.10;98.80;;;;;;5001224;28;20124;-53
2021/09/19 03:47:22;;;;;;;8.75;6.07;;;15.10;98.90;;;;;;4971584;28;20081;-52
2021/09/19 03:49:49;;;;;;;10.07;6.13;;;15.10;98.80;;;;;;4979264;28;20042;-53
2021/09/19 03:52:15;;;;;;;7.03;5.72;;;15.20;98.40;;;;;;4996859;28;20046;-51
2021/09/19 03:54:41;;;;;;;8.07;6.20;;;15.20;98.40;;;;;;5010632;28;20184;-54
2021/09/19 03:57:06;;;;;;;11.40;6.20;;;15.20;98.30;;;;;;4979371;28;20553;-54
2021/09/19 03:59:32;;;;;;;9.73;6.43;;;15.10;98.30;;;;;;5013619;28;20043;-52
2021/09/19 04:01:58;;;;;;;10.65;6.03;;;15.10;98.50;;;;;;4982134;28;20442;-53
2021/09/19 04:04:23;;;;;;;9.75;5.80;;;15.10;98.60;;;;;;5001958;28;20566;-54
2021/09/19 04:06:49;;;;;;;11.88;6.22;;;15.10;98.50;;;;;;5010808;28;20403;-53
2021/09/19 04:09:14;;;;;;;8.75;6.60;;;15.00;98.70;;;;;;5008968;28;20449;-52
2021/09/19 04:11:40;;;;;;;7.80;6.10;;;15.00;98.50;;;;;;4987113;28;20046;-52
2021/09/19 04:14:06;;;;;;;11.15;6.28;;;15.00;98.40;;;;;;4988217;28;20065;-51
2021/09/19 04:16:32;;;;;;;7.57;6.38;;;15.00;98.70;;;;;;4973605;28;20109;-55
2021/09/19 04:18:58;;;;;;;9.93;6.70;;;15.00;98.50;;;;;;5002443;28;20126;-54
2021/09/19 04:21:24;;;;;;;8.93;6.35;;;14.90;98.70;;;;;;5013069;28;20042;-53
2021/09/19 04:23:50;;;;;;;9.98;6.50;;;15.00;98.30;;;;;;4967029;28;20133;-54
2021/09/19 04:26:16;;;;;;;7.25;6.10;;;15.00;98.10;;;;;;5008636;28;20077;-54
2021/09/19 04:28:42;;;;;;;9.20;6.50;;;15.10;98.30;;;;;;4982651;28;20112;-54
2021/09/19 04:31:07;;;;;;;8.05;6.40;;;15.00;98.20;;;;;;4996764;28;20454;-53
2021/09/19 04:33:33;;;;;;;8.95;6.50;;;14.90;98.40;;;;;;4998138;28;20491;-54
2021/09/19 04:35:58;;;;;;;10.45;6.38;;;14.90;98.60;;;;;;5000742;28;20065;-54
2021/09/19 04:38:24;;;;;;;9.95;6.80;;;14.90;98.50;;;;;;4971768;28;20494;-53
2021/09/19 04:40:50;;;;;;;11.75;7.18;;;14.90;98.20;;;;;;5009015;28;20049;-51
2021/09/19 04:43:15;;;;;;;10.13;6.90;;;14.90;98.40;;;;;;5003737;28;20073;-50
2021/09/19 04:45:41;;;;;;;9.05;6.70;;;14.90;98.60;;;;;;4980856;28;20042;-52
2021/09/19 04:48:07;;;;;;;12.13;7.05;;;14.90;98.40;;;;;;4999840;28;20045;-53
2021/09/19 04:50:33;;;;;;;9.48;7.18;;;14.90;98.40;;;;;;5006707;28;20073;-54
2021/09/19 04:52:59;;;;;;;10.35;7.03;;;14.90;98.40;;;;;;4983093;28;20180;-56
2021/09/19 04:55:25;;;;;;;12.10;7.72;;;14.90;98.50;;;;;;4983790;28;20113;-56
2021/09/19 04:57:50;;;;;;;12.20;7.28;;;14.90;98.60;;;;;;4989489;28;20399;-55
2021/09/19 05:00:17;;;;;;;9.35;6.50;;;14.90;98.30;;;;;;5002172;28;20053;-56
2021/09/19 05:02:42;;;;;;;10.82;7.50;;;15.00;98.40;;;;;;4983636;28;20042;-55
2021/09/19 05:05:09;;;;;;;11.48;7.65;;;15.00;98.50;;;;;;5003712;28;20212;-56
2021/09/19 05:07:35;;;;;;;10.00;7.30;;;14.90;98.40;;;;;;4986619;28;20049;-56
2021/09/19 05:10:02;;;;;;;11.77;7.57;;;14.90;98.60;;;;;;4964585;28;20042;-57
2021/09/19 05:12:29;;;;;;;8.13;7.03;;;14.80;98.80;;;;;;4961148;28;20270;-56
2021/09/19 05:14:55;;;;;;;9.38;7.43;;;14.90;98.70;;;;;;5006678;28;20550;-56
2021/09/19 05:17:21;;;;;;;11.07;7.00;;;14.80;98.90;;;;;;5009128;28;20045;-54
2021/09/19 05:19:47;;;;;;;15.63;7.97;;;14.80;98.60;;;;;;5011743;28;20122;-55
2021/09/19 05:22:13;;;;;;;10.70;8.02;;;14.80;98.70;;;;;;5003856;28;20487;-54
2021/09/19 05:24:40;;;;;;;10.07;7.70;;;14.90;98.40;;;;;;4990645;28;20105;-54
2021/09/19 05:27:06;;;;;;;9.75;6.95;;;14.90;98.30;;;;;;4979407;28;20034;-55
2021/09/19 05:29:32;;;;;;;11.63;6.93;;;14.80;98.20;;;;;;5005338;28;20030;-56
2021/09/19 05:31:57;;;;;;;9.40;7.10;;;14.80;98.20;;;;;;5009496;28;20038;-52
2021/09/19 05:34:23;;;;;;;10.18;7.10;;;14.90;98.10;;;;;;5002768;28;20049;-53
2021/09/19 05:36:48;;;;;;;12.35;7.60;;;14.90;97.80;;;;;;5001327;28;20034;-56
2021/09/19 05:39:14;;;;;;;9.30;6.93;;;14.80;98.00;;;;;;4999413;28;20035;-56
2021/09/19 05:41:40;;;;;;;9.13;7.10;;;14.80;98.10;;;;;;4978420;28;20123;-56
2021/09/19 05:44:06;;;;;;;11.93;7.78;;;14.80;98.20;;;;;;4982258;28;20038;-56
2021/09/19 05:46:32;;;;;;;10.25;7.28;;;14.80;98.00;;;;;;4985623;28;20040;-56
2021/09/19 05:48:59;;;;;;;10.20;6.90;;;14.80;98.20;;;;;;5009168;28;20044;-57
2021/09/19 05:51:25;;;;;;;9.70;7.20;;;14.90;98.10;;;;;;4986151;28;20411;-56
2021/09/19 05:53:51;;;;;;;8.88;6.03;;;14.80;98.10;;;;;;4979796;28;20050;-52
2021/09/19 05:56:17;;;;;;;10.90;6.47;;;14.80;97.70;;;;;;4999228;28;20045;-55
2021/09/19 05:58:43;;;;;;;9.23;6.00;;;14.80;97.70;;;;;;5000765;28;20149;-55
2021/09/19 06:01:08;;;;;;;10.00;6.45;;;14.80;97.50;;;;;;4999802;28;20486;-56
2021/09/19 06:03:34;;;;;;;9.32;6.32;;;14.70;97.60;;;;;;5005529;28;20029;-55
2021/09/19 06:06:00;;;;;;;11.25;6.40;;;14.70;97.70;;;;;;5011841;28;20057;-52
2021/09/19 06:08:26;;;;;;;9.52;6.32;;;14.70;97.50;;;;;;4977122;28;20265;-55
2021/09/19 06:10:52;;;;;;;10.38;5.88;;;14.60;97.80;;;;;;5007276;28;20073;-52
2021/09/19 06:13:18;;;;;;;10.38;6.38;;;14.60;97.30;;;;;;4944286;28;20037;-55
2021/09/19 06:15:43;;;;;;;10.88;6.53;;;14.60;97.00;;;;;;4968534;28;20056;-55
2021/09/19 06:18:12;;;;;;;11.25;5.95;;;14.60;96.60;;;;;;5010749;28;20041;-53
2021/09/19 06:20:38;;;;;;;9.40;6.05;;;14.60;96.60;;;;;;5001722;28;20035;-54
2021/09/19 06:23:04;;;;;;;8.98;5.63;;;14.70;96.20;;;;;;4966636;28;20034;-53
2021/09/19 06:25:29;;;;;;;9.18;5.80;;;14.60;96.00;;;;;;4994194;28;20057;-54
2021/09/19 06:27:55;;;;;;;12.10;6.55;;;14.60;96.10;;;;;;5008011;28;20511;-53
2021/09/19 06:30:20;;;;;;;8.60;5.78;;;14.50;96.10;;;;;;5002345;28;20046;-55
2021/09/19 06:32:46;;;;;;;9.85;5.70;;;14.50;96.10;;;;;;5013998;28;20061;-56
2021/09/19 06:35:12;;;;;;;10.77;6.40;;;14.40;96.50;;;;;;4982742;28;20026;-56
2021/09/19 06:37:38;;;;;;;10.55;6.68;;;14.40;96.30;;;;;;5007416;28;20042;-55
2021/09/19 06:40:04;;;;;;;10.45;6.55;;;14.40;96.00;;;;;;4995285;28;20478;-56
2021/09/19 06:42:30;;;;;;;11.32;6.93;;;14.40;96.50;;;;;;4989651;28;20119;-56
2021/09/19 06:44:55;;;;;;;10.98;6.38;;;14.30;96.20;;;;;;4999336;28;20499;-55
2021/09/19 06:47:21;;;;;;;12.00;7.25;;;14.30;96.20;;;;;;5005403;28;20518;-53
2021/09/19 06:49:47;;;;;;;14.82;6.65;;;14.30;96.60;;;;;;4953115;28;20034;-54
2021/09/19 06:52:12;;;;;;;12.05;6.53;;;14.20;96.90;;;;;;4986471;28;20042;-54
2021/09/19 06:54:38;;;;;;;9.90;7.05;;;14.20;96.80;;;;;;5005246;28;20037;-51
2021/09/19 06:57:03;;;;;;;14.00;7.03;;;14.20;96.60;;;;;;5005747;28;20030;-54
2021/09/19 06:59:29;;;;;;;14.07;7.35;;;14.20;96.60;;;;;;5009082;28;20034;-55
2021/09/19 07:01:55;;;;;;;10.93;7.50;;;14.20;96.30;;;;;;4990268;28;20602;-53
2021/09/19 07:04:21;;;;;;;12.35;7.32;;;14.20;96.10;;;;;;4976507;28;20081;-53
2021/09/19 07:06:47;;;;;;;11.40;7.20;;;14.20;96.20;;;;;;4989374;28;20136;-55
2021/09/19 07:09:13;;;;;;;11.13;7.15;;;14.10;96.10;;;;;;4999034;28;20490;-53
2021/09/19 07:11:38;;;;;;;11.48;7.80;;;14.10;96.20;;;;;;4998183;28;20041;-54
2021/09/19 07:14:04;;;;;;;14.52;8.13;;;14.10;96.20;;;;;;4998151;28;20049;-54
2021/09/19 07:16:30;;;;;;;10.68;7.22;;;14.10;96.10;;;;;;5009581;28;20034;-55
2021/09/19 07:18:56;;;;;;;12.63;8.15;;;14.10;96.10;;;;;;5010356;28;20080;-55
2021/09/19 07:21:24;;;;;;;10.73;7.82;;;14.10;96.00;;;;;;5003503;28;20116;-52
2021/09/19 07:23:50;;;;;;;14.20;7.72;;;14.00;96.40;;;;;;5003546;28;20041;-55
2021/09/19 07:26:17;;;;;;;11.45;7.63;;;14.00;96.20;;;;;;5007235;28;20038;-54
2021/09/19 07:28:42;;;;;;;13.43;8.45;;;14.00;96.70;;;;;;5007787;28;20042;-55
2021/09/19 07:31:09;;;;;;;11.75;7.05;;;14.00;96.30;;;;;;5005926;28;20066;-55
2021/09/19 07:33:35;;;;;;;13.85;7.40;;;14.20;95.70;;;;;;4981485;28;20048;-53
2021/09/19 07:36:01;;;;;;;11.43;7.60;;;14.10;96.20;;;;;;4987831;28;20050;-54
2021/09/19 07:38:27;;;;;;;15.00;7.45;;;14.10;95.80;;;;;;5000100;28;20041;-54
2021/09/19 07:40:52;;;;;;;11.82;7.22;;;14.10;96.00;;;;;;5005859;28;20038;-54
2021/09/19 07:43:18;;;;;;;12.43;7.85;;;14.10;95.80;;;;;;4987243;28;20498;-54
2021/09/19 07:45:44;;;;;;;10.98;7.50;;;14.10;95.60;;;;;;5003998;28;20042;-55
2021/09/19 07:48:12;;;;;;;11.07;7.60;;;14.10;95.60;;;;;;4976916;28;20069;-55
2021/09/19 07:50:39;;;;;;;13.25;7.45;;;14.00;96.10;;;;;;5001585;28;20715;-55
2021/09/19 07:53:06;;;;;;;13.15;7.53;;;14.10;95.90;;;;;;5000674;28;20045;-54
2021/09/19 07:55:32;;;;;;;14.23;7.63;;;14.00;96.00;;;;;;4966935;28;20029;-54
2021/09/19 07:57:58;;;;;;;10.27;7.00;;;14.00;96.10;;;;;;5007741;28;20033;-54
2021/09/19 08:00:24;;;;;;;12.13;7.65;;;14.00;96.10;;;;;;4986155;28;20046;-55
2021/09/19 08:02:50;;;;;;;11.07;7.47;;;14.10;95.60;;;;;;5008664;28;20517;-55
2021/09/19 08:05:15;;;;;;;12.70;7.80;;;14.10;95.40;;;;;;4999706;28;21057;-55
2021/09/19 08:07:42;;;;;;;10.82;7.57;;;14.20;95.10;;;;;;5010234;28;20529;-54
2021/09/19 08:10:08;;;;;;;12.43;7.57;;;14.20;95.40;;;;;;5003916;28;20046;-54
2021/09/19 08:12:33;;;;;;;12.80;7.93;;;14.20;95.60;;;;;;5003118;28;20038;-55
2021/09/19 08:14:59;;;;;;;10.63;7.75;;;14.20;95.80;;;;;;4983156;28;20042;-54
2021/09/19 08:17:25;;;;;;;13.60;7.25;;;14.20;95.10;;;;;;4978601;28;20037;-54
2021/09/19 08:19:51;;;;;;;15.10;7.32;;;14.30;95.30;;;;;;5002272;28;20049;-54
2021/09/19 08:22:16;;;;;;;10.48;7.65;;;14.30;95.20;;;;;;5008013;28;20477;-51
2021/09/19 08:24:43;;;;;;;14.05;7.95;;;14.30;95.20;;;;;;5008270;28;20034;-52
2021/09/19 08:27:09;;;;;;;12.75;7.40;;;14.30;95.30;;;;;;4975953;28;20478;-54
2021/09/19 08:29:35;;;;;;;11.88;6.82;;;14.30;95.50;;;;;;4987033;28;20037;-53
2021/09/19 08:32:02;;;;;;;13.60;7.72;;;14.30;95.60;;;;;;4976305;28;20045;-55
2021/09/19 08:34:28;;;;;;;11.35;7.18;;;14.30;95.60;;;;;;4981922;28;20054;-53
2021/09/19 08:36:53;;;;;;;13.52;7.72;;;14.30;95.90;;;;;;5005669;28;20080;-53
2021/09/19 08:39:19;;;;;;;14.43;7.78;;;14.30;96.00;;;;;;4998419;28;20407;-54
2021/09/19 08:41:49;;;;;;;11.32;7.55;;;14.40;95.90;;;;;;5004768;28;20065;-53
2021/09/19 08:44:18;;;;;;;12.63;7.40;;;14.50;95.60;;;;;;4972968;28;20048;-55
2021/09/19 08:46:53;;;;;;;16.13;8.80;;;14.50;95.30;;;;;;5003183;28;20046;-53
2021/09/19 08:49:19;;;;;;;11.98;7.63;;;14.60;95.30;;;;;;5006242;28;20184;-54
2021/09/19 08:51:45;;;;;;;13.25;7.85;;;14.60;95.20;;;;;;5010384;28;20117;-53
2021/09/19 08:54:11;;;;;;;13.85;7.68;;;14.70;95.30;;;;;;4982374;28;20184;-53
2021/09/19 08:56:37;;;;;;;11.95;7.70;;;14.70;95.40;;;;;;4970421;28;20117;-53
2021/09/19 08:59:03;;;;;;;10.77;7.97;;;14.70;95.50;;;;;;4986008;28;20033;-53
2021/09/19 09:01:28;;;;;;;13.32;8.05;;;14.80;95.50;;;;;;5003147;28;20046;-54
2021/09/19 09:04:05;;;;;;;11.35;7.85;;;14.90;95.60;;;;;;4986011;28;20046;-56
2021/09/19 09:06:37;;;;;;;12.10;8.00;;;14.90;95.70;;;;;;5008848;28;20434;-53
2021/09/19 09:09:16;;;;;;;12.43;7.90;;;15.00;95.50;;;;;;5009024;28;20073;-56
2021/09/19 09:11:43;;;;;;;11.73;7.97;;;15.10;95.50;;;;;;4999125;28;20550;-52
2021/09/19 09:14:19;;;;;;;11.52;7.50;;;15.10;95.30;;;;;;4998353;28;20054;-56
2021/09/19 09:16:49;;;;;;;12.88;7.45;;;15.20;95.20;;;;;;4992890;28;20046;-56
2021/09/19 09:19:14;;;;;;;12.55;7.88;;;15.30;94.70;;;;;;4993903;28;20037;-52
2021/09/19 09:21:41;;;;;;;11.52;7.38;;;15.30;94.70;;;;;;4969589;28;20510;-55
2021/09/19 09:24:08;;;;;;;13.93;8.55;;;15.40;94.60;;;;;;4997001;28;20038;-54
2021/09/19 09:26:37;;;;;;;10.25;7.53;;;15.40;94.60;;;;;;4997937;28;20096;-53
2021/09/19 09:29:08;;;;;;;11.18;7.35;;;15.40;94.70;;;;;;5002023;28;20442;-54
2021/09/19 09:31:40;;;;;;;12.60;8.07;;;15.40;94.90;;;;;;4997060;28;20042;-53
2021/09/19 09:34:13;;;;;;;11.73;8.38;;;15.50;94.80;;;;;;4980578;28;20069;-53
2021/09/19 09:36:51;;;;;;;14.05;8.65;;;15.60;94.80;;;;;;4997108;28;20458;-55
2021/09/19 09:39:43;;;;;;;12.68;8.13;;;15.70;94.50;;;;;;4981976;28;20042;-56
2021/09/19 09:42:20;;;;;;;12.38;8.60;;;15.80;93.90;;;;;;4997526;28;20122;-56
2021/09/19 09:44:49;;;;;;;12.32;8.45;;;15.80;94.30;;;;;;5000886;28;20046;-55
2021/09/19 09:47:18;;;;;;;12.82;8.13;;;15.80;94.10;;;;;;5005427;28;20065;-55
2021/09/19 09:49:56;;;;;;;15.27;8.05;;;15.90;93.80;;;;;;5000293;28;20034;-56
2021/09/19 09:52:26;;;;;;;13.68;8.70;;;15.90;93.60;;;;;;4968689;28;20565;-54
2021/09/19 09:54:58;;;;;;;16.17;8.23;;;16.00;93.80;;;;;;4986004;28;20188;-52
2021/09/19 09:57:36;;;;;;;15.65;8.02;;;16.00;93.50;;;;;;5002867;28;20041;-56
2021/09/19 10:00:19;;;;;;;14.68;8.27;;;16.10;93.60;;;;;;4999756;28;20503;-55
2021/09/19 10:02:48;;;;;;;12.50;8.02;;;16.10;93.80;;;;;;4983750;28;20495;-55
2021/09/19 10:05:15;;;;;;;12.55;7.90;;;16.10;93.60;;;;;;4998332;28;20026;-55
2021/09/19 10:07:43;;;;;;;10.27;7.68;;;16.20;93.60;;;;;;5004599;28;20057;-54
2021/09/19 10:10:15;;;;;;;10.48;6.95;;;16.30;93.70;;;;;;5006169;28;20075;-56
2021/09/19 10:12:41;;;;;;;;;;;16.30;93.50;;;;;;4973561;28;20124;-56
2021/09/19 10:15:08;;;;;;;12.02;7.55;;;16.30;92.80;;;;;;5004611;28;19924;-51
2021/09/19 10:17:35;;;;;;;10.38;7.10;;;16.40;92.70;;;;;;5009112;28;20061;-51
2021/09/19 10:20:09;;;;;;;12.88;7.85;;;16.50;92.40;;;;;;5006926;28;20120;-51
2021/09/19 10:22:48;;;;;;;10.48;7.88;;;16.50;92.70;;;;;;5004972;28;20050;-52
2021/09/19 10:25:40;;;;;;;9.50;6.88;;;16.50;92.40;;;;;;4998227;28;20045;-55
2021/09/19 10:28:25;;;;;;;10.65;6.85;;;16.60;92.60;;;;;;5000441;28;20050;-52
2021/09/19 10:31:09;;;;;;;9.60;6.60;;;16.60;92.30;;;;;;5002076;28;20070;-54
2021/09/19 10:34:23;;;;;;;8.90;6.55;;;16.60;92.00;;;;;;4959274;28;20042;-52
2021/09/19 10:36:50;;;;;;;8.18;6.53;;;16.60;91.80;;;;;;4927776;29;20051;-51
2021/09/19 10:39:18;;;;;;;9.13;6.55;;;16.70;92.10;;;;;;4968110;28;20132;-51
2021/09/19 10:42:30;;;;;;;9.82;6.90;;;16.70;91.80;;;;;;4974857;28;20502;-51
2021/09/19 10:45:11;;;;;;;11.07;6.05;;;16.70;91.60;;;;;;4995896;28;20045;-52
2021/09/19 10:47:58;;;;;;;11.15;6.13;;;16.80;91.60;;;;;;5003277;28;20498;-53
2021/09/19 10:50:36;;;;;;;8.70;5.97;;;16.80;91.50;;;;;;4988661;28;20398;-53
2021/09/19 10:53:26;;;;;;;8.07;5.85;;;16.80;91.50;;;;;;4987693;28;20040;-54
2021/09/19 10:56:04;;;;;;;8.27;5.70;;;16.80;91.90;;;;;;4998385;28;20568;-51
2021/09/19 10:58:39;;;;;;;8.00;5.68;;;16.80;91.20;;;;;;5002443;28;20456;-51
2021/09/19 11:01:24;;;;;;;8.95;5.38;;;16.90;91.40;;;;;;5003972;28;20072;-56
2021/09/19 11:04:02;;;;;;;7.28;5.75;;;16.90;91.60;;;;;;4999797;28;20050;-53
2021/09/19 11:06:33;;;;;;;10.18;6.22;;;16.90;91.40;;;;;;4976673;28;20050;-52
2021/09/19 11:09:20;;;;;;;7.97;5.80;;;17.00;91.00;;;;;;4994692;28;20426;-51
2021/09/19 11:12:06;;;;;;;8.18;5.85;;;17.00;91.30;;;;;;4997853;28;20619;-52
2021/09/19 11:14:58;;;;;;;10.35;5.75;;;17.10;90.90;;;;;;4997489;28;20045;-52
2021/09/19 11:17:25;;;;;;;7.00;5.03;;;17.10;91.10;;;;;;5007064;28;20034;-53
2021/09/19 11:20:09;;;;;;;8.07;4.82;;;17.10;91.00;;;;;;5011118;28;20111;-51
2021/09/19 11:22:35;;;;;;;7.72;4.68;;;17.20;91.10;;;;;;4998621;28;20038;-51
2021/09/19 11:25:03;;;;;;;9.55;5.32;;;17.20;90.90;;;;;;5003952;28;20049;-53
2021/09/19 11:27:33;;;;;;;9.25;4.80;;;17.20;91.30;;;;;;5005060;28;20042;-54
2021/09/19 11:30:00;;;;;;;8.50;5.22;;;17.30;89.90;;;;;;4989122;28;20434;-54
2021/09/19 11:32:27;;;;;;;7.57;4.97;;;17.40;90.10;;;;;;5006802;28;20035;-52
2021/09/19 11:34:55;;;;;;;9.23;5.05;;;17.40;89.00;;;;;;4986990;28;20076;-51
2021/09/19 11:37:21;;;;;;;6.20;4.70;;;17.40;87.60;;;;;;4981801;28;20034;-53
2021/09/19 11:39:46;;;;;;;8.00;5.22;;;17.40;87.60;;;;;;5007532;28;20045;-51
2021/09/19 11:42:13;;;;;;;8.27;5.30;;;17.40;87.80;;;;;;4991890;28;20048;-54
2021/09/19 11:44:50;;;;;;;11.07;6.75;;;17.40;88.40;;;;;;5006979;28;20042;-55
2021/09/19 11:47:19;;;;;;;9.70;7.22;;;17.50;88.30;;;;;;5000888;28;20474;-51
2021/09/19 11:49:45;;;;;;;10.38;7.32;;;17.50;88.70;;;;;;4991643;28;20053;-57
2021/09/19 11:52:12;;;;;;;9.63;7.05;;;17.50;88.40;;;;;;5001134;28;20053;-51
2021/09/19 11:54:41;;;;;;;9.45;7.50;;;17.40;89.00;;;;;;5004625;28;20041;-55
2021/09/19 11:57:06;;;;;;;9.75;7.30;;;17.50;89.40;;;;;;5003199;28;20052;-55
2021/09/19 11:59:32;;;;;;;9.40;6.88;;;17.40;89.20;;;;;;4992055;28;20478;-56
2021/09/19 12:01:58;;;;;;;10.35;7.55;;;17.40;89.50;;;;;;4989005;28;20042;-52
2021/09/19 12:04:25;;;;;;;9.90;7.88;;;17.50;89.30;;;;;;5008484;28;20439;-55
2021/09/19 12:06:52;;;;;;;11.25;7.60;;;17.50;89.30;;;;;;4985165;28;20580;-55
2021/09/19 12:09:20;;;;;;;10.43;7.35;;;17.50;90.10;;;;;;5008537;28;20536;-52
2021/09/19 12:11:51;;;;;;;9.93;7.53;;;17.50;88.70;;;;;;4998140;28;20410;-53
2021/09/19 12:14:19;;;;;;;10.45;8.10;;;17.50;89.40;;;;;;5000096;28;20034;-53
2021/09/19 12:17:08;;;;;;;12.35;8.13;;;17.50;90.00;;;;;;4986556;28;20501;-52
2021/09/19 12:19:36;;;;;;;10.80;7.60;;;17.50;88.60;;;;;;4977016;28;20045;-55
2021/09/19 12:22:23;;;;;;;9.95;6.95;;;17.40;89.20;;;;;;5005293;28;20084;-56
2021/09/19 12:24:55;;;;;;;10.20;7.15;;;17.50;87.90;;;;;;4986706;28;20052;-53
2021/09/19 12:27:22;;;;;;;11.63;6.93;;;17.60;87.50;;;;;;4993967;28;20052;-54
2021/09/19 12:30:14;;;;;;;10.77;7.10;;;17.50;88.50;;;;;;5008706;28;20041;-53
2021/09/19 12:32:50;;;;;;;10.10;6.93;;;17.50;89.10;;;;;;5005446;28;20042;-56
2021/09/19 12:35:30;;;;;;;9.70;6.45;;;17.50;88.80;;;;;;4990999;28;20289;-55
2021/09/19 12:38:02;;;;;;;9.52;6.78;;;17.50;89.00;;;;;;5005340;28;20034;-53
2021/09/19 12:40:29;;;;;;;8.90;6.63;;;17.50;89.40;;;;;;4980306;28;20087;-56
2021/09/19 12:43:13;;;;;;;11.73;6.82;;;17.50;89.40;;;;;;4983496;28;20045;-57
2021/09/19 12:45:51;;;;;;;11.18;6.82;;;17.60;89.30;;;;;;5003898;28;20042;-56